Time;durP1;ratioP1;P1;durP2;ratioP2;P2;SDS_P1;SDS_P2;PMS_P1;PMS_P2;Temp;Humidity;BMP_temperature;BMP_pressure;BME280_temperature;BME280_humidity;BME280_pressure;Samples;Min_cycle;Max_cycle;Signal;HPM_P1;HPM_P2
2021/01/25 00:01:12;;;;;;;7.95;3.70;;;5.70;79.90;;;;;;5027408;28;20030;-49
2021/01/25 00:03:38;;;;;;;7.47;3.40;;;5.70;79.10;;;;;;5013525;28;20037;-49
2021/01/25 00:06:04;;;;;;;7.10;2.70;;;5.70;79.10;;;;;;5021881;28;20163;-49
2021/01/25 00:08:29;;;;;;;7.70;3.63;;;5.70;79.10;;;;;;5017865;28;20029;-50
2021/01/25 00:10:55;;;;;;;8.38;3.85;;;5.70;79.20;;;;;;5013780;28;20050;-49
2021/01/25 00:13:21;;;;;;;5.95;3.40;;;5.70;79.20;;;;;;5013071;28;20100;-49
2021/01/25 00:15:48;;;;;;;6.72;3.90;;;5.70;79.40;;;;;;5013007;28;20037;-49
2021/01/25 00:18:14;;;;;;;7.82;3.80;;;5.70;79.20;;;;;;5015909;28;20105;-49
2021/01/25 00:20:39;;;;;;;10.13;4.00;;;5.70;79.20;;;;;;5027353;28;20121;-49
2021/01/25 00:23:05;;;;;;;12.52;3.83;;;5.70;79.20;;;;;;5016131;28;20073;-49
2021/01/25 00:25:31;;;;;;;9.98;4.53;;;5.70;79.20;;;;;;5016544;28;20030;-49
2021/01/25 00:27:56;;;;;;;5.75;2.90;;;5.70;79.20;;;;;;5016148;28;20092;-49
2021/01/25 00:30:22;;;;;;;13.90;4.82;;;5.70;79.20;;;;;;5016451;28;20340;-49
2021/01/25 00:32:49;;;;;;;8.52;3.80;;;5.70;79.20;;;;;;5017124;28;20065;-49
2021/01/25 00:35:14;;;;;;;6.53;3.58;;;5.70;79.20;;;;;;5016169;28;20029;-49
2021/01/25 00:37:40;;;;;;;13.15;3.72;;;5.80;79.20;;;;;;5015621;28;20137;-50
2021/01/25 00:40:07;;;;;;;9.63;3.88;;;5.70;79.20;;;;;;5031914;28;20025;-49
2021/01/25 00:42:33;;;;;;;5.90;3.45;;;5.70;79.20;;;;;;5027915;28;20088;-49
2021/01/25 00:44:59;;;;;;;7.00;3.40;;;5.70;79.20;;;;;;5015982;28;20053;-49
2021/01/25 00:47:25;;;;;;;9.10;3.50;;;5.70;79.20;;;;;;5016888;28;20141;-49
2021/01/25 00:49:51;;;;;;;12.23;2.92;;;5.80;79.30;;;;;;5015580;28;20034;-49
2021/01/25 00:52:16;;;;;;;7.22;3.03;;;5.70;79.20;;;;;;5016392;28;20026;-49
2021/01/25 00:54:42;;;;;;;7.35;3.03;;;5.80;79.30;;;;;;5016339;28;20064;-49
2021/01/25 00:57:08;;;;;;;10.13;3.65;;;5.80;79.30;;;;;;5028968;28;20033;-49
2021/01/25 00:59:34;;;;;;;6.78;3.63;;;5.80;79.20;;;;;;5026325;28;20037;-49
2021/01/25 01:02:00;;;;;;;7.53;2.90;;;5.80;79.20;;;;;;5035151;28;20077;-49
2021/01/25 01:04:25;;;;;;;4.93;2.97;;;5.80;79.20;;;;;;5035096;28;20399;-50
2021/01/25 01:06:51;;;;;;;7.38;3.10;;;5.80;79.30;;;;;;5026590;28;20497;-49
2021/01/25 01:09:17;;;;;;;10.65;3.95;;;5.80;79.30;;;;;;5033173;28;20018;-49
2021/01/25 01:11:43;;;;;;;7.50;3.00;;;5.80;79.30;;;;;;5035233;28;20071;-49
2021/01/25 01:14:08;;;;;;;11.15;3.58;;;5.80;79.20;;;;;;5035219;28;20037;-49
2021/01/25 01:16:34;;;;;;;10.43;3.60;;;5.80;79.20;;;;;;5035328;28;20022;-49
2021/01/25 01:19:00;;;;;;;6.35;2.90;;;5.80;79.30;;;;;;5034883;28;20296;-49
2021/01/25 01:21:25;;;;;;;8.15;3.22;;;5.80;79.30;;;;;;5033000;28;20446;-49
2021/01/25 01:23:51;;;;;;;13.38;3.72;;;5.80;79.20;;;;;;5035018;28;20032;-49
2021/01/25 01:26:17;;;;;;;3.63;2.42;;;5.80;79.20;;;;;;5034804;28;20112;-49
2021/01/25 01:28:42;;;;;;;7.22;3.45;;;5.80;79.30;;;;;;5034128;28;20021;-49
2021/01/25 01:31:08;;;;;;;10.43;4.25;;;5.80;79.20;;;;;;5033077;28;20538;-49
2021/01/25 01:33:33;;;;;;;8.10;4.05;;;5.80;79.20;;;;;;5035425;28;20355;-49
2021/01/25 01:35:59;;;;;;;5.82;3.40;;;5.80;79.20;;;;;;5016840;28;20460;-49
2021/01/25 01:38:25;;;;;;;9.88;3.80;;;5.80;79.20;;;;;;5014550;28;20352;-49
2021/01/25 01:40:50;;;;;;;7.53;3.42;;;5.80;79.20;;;;;;5016048;28;20022;-49
2021/01/25 01:43:17;;;;;;;9.65;3.88;;;5.80;79.20;;;;;;5014916;28;20069;-49
2021/01/25 01:45:42;;;;;;;8.75;3.80;;;5.80;79.20;;;;;;5031161;28;20025;-49
2021/01/25 01:48:09;;;;;;;14.45;3.90;;;5.80;79.20;;;;;;5034281;28;20025;-49
2021/01/25 01:50:35;;;;;;;8.18;3.72;;;5.80;79.20;;;;;;5034216;28;20025;-49
2021/01/25 01:53:01;;;;;;;10.90;3.40;;;5.80;79.20;;;;;;5032754;28;20417;-49
2021/01/25 01:55:27;;;;;;;9.50;3.28;;;5.80;79.10;;;;;;5034460;28;20037;-49
2021/01/25 01:57:53;;;;;;;9.25;2.95;;;5.80;79.10;;;;;;5014227;28;20030;-49
2021/01/25 02:00:20;;;;;;;8.15;3.92;;;5.80;79.20;;;;;;5030666;28;20056;-50
2021/01/25 02:02:46;;;;;;;7.45;3.03;;;5.80;79.20;;;;;;5037950;28;20087;-50
2021/01/25 02:05:13;;;;;;;6.25;3.53;;;5.80;79.20;;;;;;5032238;28;20017;-49
2021/01/25 02:07:41;;;;;;;3.55;2.45;;;5.80;79.10;;;;;;5014403;28;20172;-49
2021/01/25 02:10:08;;;;;;;4.75;3.03;;;5.80;79.10;;;;;;5014053;28;20049;-49
2021/01/25 02:12:35;;;;;;;5.28;2.80;;;5.80;79.10;;;;;;5013765;28;20278;-49
2021/01/25 02:15:02;;;;;;;7.63;3.28;;;5.80;79.10;;;;;;5032330;28;20475;-49
2021/01/25 02:17:29;;;;;;;9.95;3.47;;;5.80;79.10;;;;;;5034076;28;20134;-49
2021/01/25 02:20:23;;;;;;;9.25;3.28;;;5.80;79.20;;;;;;5033775;28;20108;-49
2021/01/25 02:23:16;;;;;;;13.98;3.67;;;5.80;79.10;;;;;;5022284;28;20049;-49
2021/01/25 02:25:50;;;;;;;5.03;2.85;;;5.80;79.00;;;;;;5014027;28;20030;-49
2021/01/25 02:28:16;;;;;;;5.95;3.22;;;5.80;79.10;;;;;;5016478;28;20029;-49
2021/01/25 02:30:44;;;;;;;7.95;3.10;;;5.80;79.10;;;;;;5033602;28;20025;-49
2021/01/25 02:33:11;;;;;;;4.97;2.58;;;5.80;79.10;;;;;;5032031;28;20428;-49
2021/01/25 02:35:37;;;;;;;7.20;3.05;;;5.80;79.10;;;;;;5031594;28;20112;-49
2021/01/25 02:38:08;;;;;;;6.60;3.13;;;5.80;79.10;;;;;;5033465;28;20033;-49
2021/01/25 02:40:34;;;;;;;8.57;3.10;;;5.80;79.00;;;;;;5033587;28;20040;-49
2021/01/25 02:43:01;;;;;;;8.05;3.83;;;5.80;79.00;;;;;;5019462;28;20065;-49
2021/01/25 02:45:27;;;;;;;6.30;3.22;;;5.80;79.00;;;;;;5014661;28;20026;-49
2021/01/25 02:47:54;;;;;;;4.93;3.08;;;5.80;79.00;;;;;;5013501;28;20033;-49
2021/01/25 02:50:20;;;;;;;6.18;3.33;;;5.80;79.10;;;;;;5013771;28;20034;-49
2021/01/25 02:52:45;;;;;;;6.55;3.55;;;5.80;79.00;;;;;;5013802;28;20362;-49
2021/01/25 02:55:11;;;;;;;6.22;3.60;;;5.80;79.00;;;;;;5014764;28;20041;-49
2021/01/25 02:57:38;;;;;;;6.75;2.67;;;5.80;79.00;;;;;;5030903;28;20025;-49
2021/01/25 03:00:07;;;;;;;8.48;2.97;;;5.80;79.00;;;;;;5028514;28;20056;-49
2021/01/25 03:02:33;;;;;;;10.20;3.72;;;5.80;79.00;;;;;;5013308;28;20080;-49
2021/01/25 03:05:00;;;;;;;12.32;3.13;;;5.80;79.00;;;;;;5013770;28;20026;-49
2021/01/25 03:07:27;;;;;;;4.65;2.67;;;5.80;79.00;;;;;;5027202;28;20064;-49
2021/01/25 03:09:53;;;;;;;4.50;2.80;;;5.80;79.00;;;;;;5032931;28;20084;-49
2021/01/25 03:12:18;;;;;;;4.50;3.13;;;5.80;79.00;;;;;;5032967;28;20056;-49
2021/01/25 03:14:45;;;;;;;5.65;2.95;;;5.80;79.00;;;;;;5033280;28;20029;-49
2021/01/25 03:17:11;;;;;;;4.65;2.80;;;5.80;79.00;;;;;;5031145;28;20086;-49
2021/01/25 03:19:37;;;;;;;9.27;2.85;;;5.80;79.00;;;;;;5033240;28;20017;-49
2021/01/25 03:22:02;;;;;;;6.70;3.00;;;5.80;79.10;;;;;;5032965;28;20347;-49
2021/01/25 03:24:28;;;;;;;5.60;2.70;;;5.80;79.00;;;;;;5019744;28;20109;-49
2021/01/25 03:26:54;;;;;;;4.75;2.72;;;5.80;79.00;;;;;;5013168;28;20029;-49
2021/01/25 03:29:19;;;;;;;5.22;3.20;;;5.90;79.00;;;;;;5014061;28;20034;-49
2021/01/25 03:31:45;;;;;;;6.50;3.30;;;5.80;78.90;;;;;;5011719;28;20358;-49
2021/01/25 03:34:11;;;;;;;7.13;3.38;;;5.80;79.00;;;;;;5012934;28;20550;-49
2021/01/25 03:36:37;;;;;;;7.18;3.30;;;5.80;79.00;;;;;;5013442;28;20053;-49
2021/01/25 03:39:05;;;;;;;6.90;3.00;;;5.80;78.90;;;;;;5023614;28;20036;-49
2021/01/25 03:41:30;;;;;;;8.35;2.90;;;5.80;78.90;;;;;;5032961;28;20463;-49
2021/01/25 03:43:56;;;;;;;4.07;2.80;;;5.90;78.90;;;;;;5019581;28;20057;-50
2021/01/25 03:46:22;;;;;;;11.70;3.10;;;5.80;78.90;;;;;;5012856;28;20393;-49
2021/01/25 03:48:47;;;;;;;6.30;2.85;;;5.90;78.90;;;;;;5014040;28;20431;-49
2021/01/25 03:51:14;;;;;;;4.05;2.38;;;5.90;78.90;;;;;;5013721;28;20392;-49
2021/01/25 03:53:40;;;;;;;5.47;2.85;;;5.90;78.90;;;;;;5017248;28;20025;-49
2021/01/25 03:56:06;;;;;;;6.88;3.05;;;5.90;78.90;;;;;;5016559;28;20466;-49
2021/01/25 03:58:31;;;;;;;3.65;2.50;;;5.90;79.00;;;;;;5016657;28;20034;-49
2021/01/25 04:00:57;;;;;;;6.80;3.35;;;5.90;78.90;;;;;;5017600;28;20463;-49
2021/01/25 04:03:23;;;;;;;3.75;2.72;;;5.90;78.90;;;;;;5016603;28;20440;-49
2021/01/25 04:05:49;;;;;;;4.63;2.72;;;5.90;78.90;;;;;;5023695;28;20092;-49
2021/01/25 04:08:14;;;;;;;4.93;3.03;;;5.90;78.90;;;;;;5036381;28;20448;-49
2021/01/25 04:10:40;;;;;;;4.05;2.13;;;5.90;78.90;;;;;;5027545;28;20030;-49
2021/01/25 04:13:06;;;;;;;4.97;2.90;;;5.90;78.90;;;;;;5020215;28;20030;-49
2021/01/25 04:15:32;;;;;;;3.67;2.95;;;5.90;78.90;;;;;;5036310;28;20025;-49
2021/01/25 04:17:58;;;;;;;3.92;2.72;;;5.90;78.90;;;;;;5036058;28;20037;-49
2021/01/25 04:20:23;;;;;;;5.97;3.00;;;5.90;78.90;;;;;;5034217;28;20348;-49
2021/01/25 04:22:49;;;;;;;7.15;3.85;;;5.90;78.90;;;;;;5036070;28;20044;-49
2021/01/25 04:25:15;;;;;;;4.97;2.88;;;5.90;78.90;;;;;;5035873;28;20026;-50
2021/01/25 04:27:40;;;;;;;4.22;2.65;;;5.90;78.90;;;;;;5035892;28;20037;-50
2021/01/25 04:30:08;;;;;;;6.00;2.85;;;5.90;78.80;;;;;;5035466;28;20029;-50
2021/01/25 04:32:37;;;;;;;5.22;3.03;;;5.90;78.80;;;;;;5034426;28;20040;-50
2021/01/25 04:35:11;;;;;;;3.92;2.40;;;5.90;78.90;;;;;;5016126;28;20444;-49
2021/01/25 04:37:38;;;;;;;6.60;3.00;;;5.90;78.90;;;;;;5016347;28;20053;-49
2021/01/25 04:40:06;;;;;;;4.47;2.53;;;5.90;78.80;;;;;;5015867;28;20135;-49
2021/01/25 04:42:32;;;;;;;10.55;3.53;;;5.90;78.80;;;;;;5016926;28;20121;-50
2021/01/25 04:44:58;;;;;;;4.68;2.85;;;5.90;78.80;;;;;;5015656;28;20026;-50
2021/01/25 04:47:24;;;;;;;4.97;3.42;;;5.90;78.80;;;;;;5016245;28;20025;-50
2021/01/25 04:49:53;;;;;;;6.63;2.83;;;5.90;78.90;;;;;;5015618;28;20024;-50
2021/01/25 04:52:19;;;;;;;4.82;3.08;;;5.90;78.90;;;;;;5016854;28;20060;-50
2021/01/25 04:54:46;;;;;;;6.07;3.53;;;5.90;78.80;;;;;;5016013;28;20110;-50
2021/01/25 04:57:15;;;;;;;9.10;3.85;;;5.90;78.90;;;;;;5021078;28;20048;-50
2021/01/25 04:59:43;;;;;;;5.85;3.30;;;5.90;78.90;;;;;;5015368;28;20459;-49
2021/01/25 05:02:09;;;;;;;6.93;3.15;;;5.90;78.90;;;;;;5016626;28;20042;-50
2021/01/25 05:04:35;;;;;;;6.13;3.40;;;5.90;78.90;;;;;;5014721;28;20041;-50
2021/01/25 05:07:00;;;;;;;3.67;2.92;;;5.90;78.90;;;;;;5031044;28;20030;-50
2021/01/25 05:09:26;;;;;;;5.22;3.20;;;5.90;78.90;;;;;;5035035;28;20025;-50
2021/01/25 05:11:59;;;;;;;7.07;3.20;;;6.00;79.00;;;;;;5035125;28;20458;-49
2021/01/25 05:14:25;;;;;;;4.88;3.13;;;5.90;78.90;;;;;;5033540;28;20340;-50
2021/01/25 05:16:52;;;;;;;6.95;3.13;;;6.00;78.90;;;;;;5035131;28;20028;-50
2021/01/25 05:19:17;;;;;;;7.60;3.38;;;6.00;78.90;;;;;;5035214;28;20030;-49
2021/01/25 05:21:46;;;;;;;7.13;3.25;;;6.00;78.90;;;;;;5035175;28;20033;-50
2021/01/25 05:24:13;;;;;;;8.07;3.03;;;5.90;78.80;;;;;;5033275;28;20033;-49
2021/01/25 05:27:00;;;;;;;6.40;3.05;;;6.00;78.90;;;;;;5034894;28;20025;-50
2021/01/25 05:29:27;;;;;;;8.07;3.58;;;6.00;78.90;;;;;;5034926;28;20033;-50
2021/01/25 05:31:54;;;;;;;4.63;2.83;;;6.00;79.00;;;;;;5030207;28;20032;-50
2021/01/25 05:34:21;;;;;;;7.75;3.88;;;6.00;79.00;;;;;;5023409;28;20033;-50
2021/01/25 05:36:48;;;;;;;6.53;3.35;;;6.00;79.00;;;;;;5025946;28;20025;-50
2021/01/25 05:39:15;;;;;;;7.72;3.05;;;6.00;79.00;;;;;;5029602;28;20044;-50
2021/01/25 05:41:55;;;;;;;4.85;2.60;;;5.90;78.90;;;;;;5022773;28;20105;-50
2021/01/25 05:44:21;;;;;;;5.70;2.60;;;6.00;79.00;;;;;;5029837;28;20033;-49
2021/01/25 05:46:48;;;;;;;5.00;2.80;;;6.00;79.10;;;;;;5030630;28;20030;-50
2021/01/25 05:49:24;;;;;;;4.45;3.00;;;6.00;79.10;;;;;;5016387;28;20025;-50
2021/01/25 05:51:52;;;;;;;3.88;2.60;;;6.00;79.00;;;;;;5019157;28;20105;-50
2021/01/25 05:54:20;;;;;;;6.78;3.20;;;6.00;79.00;;;;;;5023815;28;20040;-50
2021/01/25 05:56:45;;;;;;;5.15;2.97;;;6.00;79.10;;;;;;5024267;28;20087;-50
2021/01/25 05:59:11;;;;;;;8.00;4.13;;;6.00;79.10;;;;;;5022457;28;21398;-49
2021/01/25 06:01:38;;;;;;;6.90;3.22;;;6.00;79.10;;;;;;5018114;28;20026;-50
2021/01/25 06:04:06;;;;;;;7.10;3.55;;;6.00;79.10;;;;;;5013496;28;20375;-51
2021/01/25 06:06:35;;;;;;;7.55;3.10;;;5.90;79.10;;;;;;5021698;28;20404;-50
2021/01/25 06:09:26;;;;;;;4.60;2.70;;;6.00;79.10;;;;;;5014146;28;20123;-49
2021/01/25 06:12:00;;;;;;;7.78;2.97;;;6.00;79.20;;;;;;5015416;28;20502;-50
2021/01/25 06:14:41;;;;;;;4.82;3.00;;;6.00;79.10;;;;;;5019316;28;20030;-49
2021/01/25 06:17:11;;;;;;;6.38;3.17;;;6.00;79.10;;;;;;5022414;28;20478;-50
2021/01/25 06:19:39;;;;;;;6.28;2.38;;;6.00;79.10;;;;;;5029591;28;20037;-49
2021/01/25 06:22:07;;;;;;;10.23;2.70;;;6.00;79.20;;;;;;5031205;28;20048;-50
2021/01/25 06:24:33;;;;;;;7.53;3.30;;;6.00;79.20;;;;;;5024966;28;20411;-50
2021/01/25 06:27:00;;;;;;;5.68;3.00;;;6.00;79.40;;;;;;5015307;28;20145;-50
2021/01/25 06:29:26;;;;;;;5.78;3.20;;;6.00;79.20;;;;;;5019619;28;20358;-50
2021/01/25 06:31:57;;;;;;;5.65;3.25;;;6.00;79.20;;;;;;5032064;28;20047;-50
2021/01/25 06:34:23;;;;;;;4.65;2.78;;;6.00;79.10;;;;;;5025601;28;20037;-50
2021/01/25 06:36:52;;;;;;;6.50;3.17;;;6.00;79.10;;;;;;5032137;28;20081;-50
2021/01/25 06:39:27;;;;;;;5.82;2.90;;;6.00;79.10;;;;;;5032918;28;20029;-50
2021/01/25 06:42:01;;;;;;;4.55;2.60;;;6.00;79.20;;;;;;5029128;28;20069;-50
2021/01/25 06:44:29;;;;;;;4.18;2.67;;;6.00;79.20;;;;;;5024074;28;20036;-50
2021/01/25 06:46:57;;;;;;;3.67;2.47;;;6.00;79.20;;;;;;5021429;28;20041;-50
2021/01/25 06:49:23;;;;;;;7.78;2.78;;;6.00;79.20;;;;;;5012174;28;20036;-50
2021/01/25 06:51:51;;;;;;;5.35;2.42;;;6.00;79.20;;;;;;5014072;28;20040;-50
2021/01/25 06:54:23;;;;;;;6.85;2.88;;;6.00;79.10;;;;;;5016140;28;20025;-49
2021/01/25 06:56:59;;;;;;;4.20;2.35;;;6.00;79.10;;;;;;5020955;28;20034;-50
2021/01/25 06:59:30;;;;;;;2.55;1.83;;;6.00;79.20;;;;;;5020147;28;20033;-50
2021/01/25 07:01:57;;;;;;;3.63;2.30;;;6.00;79.20;;;;;;5020817;28;20034;-49
2021/01/25 07:04:24;;;;;;;3.85;2.40;;;6.00;79.20;;;;;;5019077;28;20132;-50
2021/01/25 07:06:54;;;;;;;5.97;3.17;;;6.00;79.20;;;;;;5031012;28;20021;-50
2021/01/25 07:09:30;;;;;;;;;;;6.00;79.20;;;;;;5023697;28;20037;-50
2021/01/25 07:12:00;;;;;;;6.80;3.13;;;6.00;79.20;;;;;;5014476;28;20007;-49
2021/01/25 07:14:27;;;;;;;;;;;6.00;79.20;;;;;;5033998;28;20022;-50
2021/01/25 07:16:54;;;;;;;5.43;2.10;;;6.00;79.20;;;;;;5019553;28;20418;-50
2021/01/25 07:19:21;;;;;;;3.70;2.42;;;6.00;79.20;;;;;;5017057;28;20037;-50
2021/01/25 07:21:48;;;;;;;2.17;1.80;;;6.00;79.20;;;;;;5012984;28;20428;-50
2021/01/25 07:24:23;;;;;;;7.90;2.65;;;6.00;79.20;;;;;;5032988;28;20045;-50
2021/01/25 07:26:52;;;;;;;4.63;2.40;;;6.00;79.20;;;;;;5034394;28;20076;-50
2021/01/25 07:29:18;;;;;;;4.13;2.60;;;6.00;79.20;;;;;;5035250;28;20118;-50
2021/01/25 07:31:44;;;;;;;5.50;2.63;;;6.00;79.20;;;;;;5024613;28;20543;-50
2021/01/25 07:34:11;;;;;;;4.93;2.53;;;6.00;79.20;;;;;;5031272;28;20138;-50
2021/01/25 07:36:37;;;;;;;5.05;3.10;;;6.00;79.20;;;;;;5026349;28;20406;-50
2021/01/25 07:39:11;;;;;;;3.67;2.30;;;6.10;79.20;;;;;;5035817;28;20037;-50
2021/01/25 07:41:38;;;;;;;4.43;2.90;;;6.10;79.20;;;;;;5028239;28;20021;-50
2021/01/25 07:44:06;;;;;;;3.60;2.28;;;6.10;79.10;;;;;;5035326;28;20029;-50
2021/01/25 07:46:32;;;;;;;5.75;2.85;;;6.10;79.10;;;;;;5036388;28;20026;-50
2021/01/25 07:48:57;;;;;;;5.32;2.53;;;6.10;79.10;;;;;;5036796;28;20132;-49
2021/01/25 07:51:26;;;;;;;4.22;2.88;;;6.10;79.10;;;;;;5030037;28;20451;-49
2021/01/25 07:53:56;;;;;;;4.38;2.90;;;6.10;79.10;;;;;;5036588;28;20029;-49
2021/01/25 07:56:24;;;;;;;3.92;2.75;;;6.10;79.10;;;;;;5036343;28;20030;-50
2021/01/25 07:59:01;;;;;;;5.78;3.17;;;6.10;79.10;;;;;;5021028;28;20053;-50
2021/01/25 08:01:29;;;;;;;4.07;2.45;;;6.10;79.10;;;;;;5022100;28;20030;-49
2021/01/25 08:04:01;;;;;;;3.92;2.85;;;6.10;79.10;;;;;;5036466;28;20034;-50
2021/01/25 08:06:33;;;;;;;5.47;3.00;;;6.20;79.10;;;;;;5024256;28;20053;-50
2021/01/25 08:09:02;;;;;;;5.32;2.63;;;6.20;79.10;;;;;;5016491;28;20034;-50
2021/01/25 08:11:28;;;;;;;4.93;2.60;;;6.10;79.00;;;;;;5026379;28;20032;-50
2021/01/25 08:14:14;;;;;;;7.80;3.17;;;6.20;79.10;;;;;;5021192;28;20045;-50
2021/01/25 08:16:47;;;;;;;5.40;3.17;;;6.20;79.00;;;;;;5017628;28;20122;-50
2021/01/25 08:19:36;;;;;;;8.43;3.03;;;6.20;79.10;;;;;;5017289;28;20117;-50
2021/01/25 08:22:25;;;;;;;4.13;3.08;;;6.20;79.10;;;;;;5032060;28;20038;-50
2021/01/25 08:24:58;;;;;;;4.72;3.00;;;6.20;79.00;;;;;;5036509;28;20104;-50
2021/01/25 08:27:25;;;;;;;7.15;3.42;;;6.20;79.00;;;;;;5035630;28;20112;-49
2021/01/25 08:30:05;;;;;;;5.35;3.03;;;6.20;79.10;;;;;;5016423;28;20018;-50
2021/01/25 08:32:43;;;;;;;5.70;3.20;;;6.30;79.00;;;;;;5032617;28;20036;-50
2021/01/25 08:35:10;;;;;;;6.88;3.80;;;6.30;79.00;;;;;;5035551;28;20029;-50
2021/01/25 08:37:37;;;;;;;5.80;3.08;;;6.30;78.90;;;;;;5035057;28;20040;-50
2021/01/25 08:40:20;;;;;;;6.97;4.03;;;6.30;78.90;;;;;;5030562;28;20025;-50
2021/01/25 08:42:46;;;;;;;7.50;3.28;;;6.30;78.80;;;;;;5017110;28;20073;-50
2021/01/25 08:45:25;;;;;;;4.78;3.40;;;6.40;78.90;;;;;;5035890;28;20033;-50
2021/01/25 08:47:51;;;;;;;8.05;3.88;;;6.40;78.80;;;;;;5035489;28;20025;-49
2021/01/25 08:50:27;;;;;;;3.17;2.78;;;6.40;78.80;;;;;;5031452;28;20029;-50
2021/01/25 08:53:03;;;;;;;6.47;3.30;;;6.40;78.80;;;;;;5015767;28;20452;-50
2021/01/25 08:55:35;;;;;;;8.68;3.67;;;6.40;78.80;;;;;;5028094;28;20034;-50
2021/01/25 08:58:01;;;;;;;6.38;3.55;;;6.40;78.70;;;;;;5029461;28;20033;-50
2021/01/25 09:00:26;;;;;;;7.03;3.20;;;6.50;78.70;;;;;;5029580;28;20028;-50
2021/01/25 09:02:58;;;;;;;7.93;3.60;;;6.50;78.70;;;;;;5034530;28;20038;-50
2021/01/25 09:05:24;;;;;;;6.47;3.08;;;6.60;78.80;;;;;;5029555;28;20021;-50
2021/01/25 09:07:56;;;;;;;7.05;3.42;;;6.60;78.70;;;;;;5024416;28;20033;-49
2021/01/25 09:10:22;;;;;;;7.75;3.58;;;6.60;78.70;;;;;;5027527;28;20039;-50
2021/01/25 09:12:47;;;;;;;4.47;2.85;;;6.60;78.60;;;;;;5019249;28;20042;-49
2021/01/25 09:15:14;;;;;;;5.07;3.03;;;6.60;78.60;;;;;;5015130;28;20030;-50
2021/01/25 09:17:40;;;;;;;5.28;3.05;;;6.60;78.60;;;;;;5015348;28;20057;-50
2021/01/25 09:20:08;;;;;;;4.45;2.80;;;6.70;78.60;;;;;;5023615;28;20053;-49
2021/01/25 09:22:35;;;;;;;8.02;4.05;;;6.70;78.60;;;;;;5024406;28;20041;-50
2021/01/25 09:25:01;;;;;;;5.28;3.80;;;6.70;78.50;;;;;;5032240;28;20104;-49
2021/01/25 09:27:26;;;;;;;7.45;3.58;;;6.70;78.50;;;;;;5035059;28;20029;-50
2021/01/25 09:29:52;;;;;;;6.35;3.00;;;6.70;78.50;;;;;;5034410;28;20324;-50
2021/01/25 09:32:18;;;;;;;5.38;3.45;;;6.80;78.50;;;;;;5022896;28;20099;-50
2021/01/25 09:34:44;;;;;;;7.95;3.30;;;6.80;78.40;;;;;;5034710;28;20037;-50
2021/01/25 09:37:10;;;;;;;7.05;3.53;;;6.80;78.50;;;;;;5017910;28;20037;-49
2021/01/25 09:39:37;;;;;;;4.85;3.05;;;6.80;78.50;;;;;;5018893;28;20033;-50
2021/01/25 09:42:04;;;;;;;9.52;3.63;;;6.80;78.50;;;;;;5025077;28;20049;-49
2021/01/25 09:44:29;;;;;;;4.28;2.92;;;6.80;78.50;;;;;;5014640;28;20033;-50
2021/01/25 09:46:56;;;;;;;4.45;2.38;;;6.80;78.40;;;;;;5014255;28;20026;-49
2021/01/25 09:49:22;;;;;;;5.38;3.00;;;6.80;78.50;;;;;;5013419;28;20034;-49
2021/01/25 09:51:48;;;;;;;5.53;3.15;;;6.80;78.50;;;;;;5020290;28;20414;-50
2021/01/25 09:54:14;;;;;;;6.57;2.65;;;6.80;78.50;;;;;;5023789;28;20037;-49
2021/01/25 09:56:39;;;;;;;8.80;3.22;;;6.80;78.50;;;;;;5016612;28;20022;-50
2021/01/25 09:59:05;;;;;;;4.70;3.00;;;6.80;78.50;;;;;;5013487;28;20033;-50
2021/01/25 10:01:31;;;;;;;6.30;3.42;;;6.90;78.60;;;;;;5022037;28;20033;-49
2021/01/25 10:03:57;;;;;;;5.90;3.40;;;6.90;78.60;;;;;;5033764;28;20069;-50
2021/01/25 10:06:23;;;;;;;10.75;4.85;;;6.90;78.60;;;;;;5020429;28;20586;-50
2021/01/25 10:08:48;;;;;;;9.32;4.15;;;6.90;78.60;;;;;;5014066;28;20030;-50
2021/01/25 10:11:14;;;;;;;5.95;4.20;;;6.90;78.60;;;;;;5023019;28;20034;-50
2021/01/25 10:13:40;;;;;;;8.40;4.22;;;7.00;78.70;;;;;;5034014;28;20025;-50
2021/01/25 10:16:06;;;;;;;8.18;4.60;;;7.00;78.70;;;;;;5026964;28;20033;-49
2021/01/25 10:18:32;;;;;;;7.18;4.05;;;7.00;78.20;;;;;;5013654;28;20412;-49
2021/01/25 10:21:00;;;;;;;6.43;4.20;;;7.00;78.60;;;;;;5020769;28;20532;-50
2021/01/25 10:23:26;;;;;;;8.13;4.70;;;7.00;78.60;;;;;;5024545;28;20362;-50
2021/01/25 10:25:52;;;;;;;7.95;4.97;;;7.00;78.60;;;;;;5014814;28;20105;-49
2021/01/25 10:28:20;;;;;;;12.55;4.95;;;7.00;78.60;;;;;;5030641;28;20356;-49
2021/01/25 10:30:47;;;;;;;5.40;3.35;;;7.10;78.70;;;;;;5032528;28;20025;-50
2021/01/25 10:33:13;;;;;;;9.00;4.45;;;7.10;78.60;;;;;;5024642;28;20029;-50
2021/01/25 10:35:39;;;;;;;5.13;3.08;;;7.10;78.60;;;;;;5026071;28;20397;-50
2021/01/25 10:38:05;;;;;;;6.53;3.30;;;7.10;78.60;;;;;;5031237;28;20041;-50
2021/01/25 10:40:30;;;;;;;6.45;3.17;;;7.10;78.70;;;;;;5033571;28;20033;-49
2021/01/25 10:42:57;;;;;;;4.95;3.30;;;7.10;78.70;;;;;;5030192;28;20034;-49
2021/01/25 10:45:23;;;;;;;5.43;3.03;;;7.10;78.70;;;;;;5033784;28;20401;-50
2021/01/25 10:47:49;;;;;;;3.00;2.67;;;7.10;78.70;;;;;;5022373;28;20503;-50
2021/01/25 10:50:16;;;;;;;5.18;3.00;;;7.10;78.70;;;;;;5013733;28;20069;-50
2021/01/25 10:52:43;;;;;;;6.97;3.25;;;7.10;78.60;;;;;;5013597;28;20021;-50
2021/01/25 10:55:09;;;;;;;4.13;2.85;;;7.10;78.70;;;;;;5013629;28;20459;-50
2021/01/25 10:57:35;;;;;;;4.93;3.00;;;7.20;78.80;;;;;;5013318;28;21284;-50
2021/01/25 11:00:05;;;;;;;5.15;2.85;;;7.20;78.80;;;;;;5026299;28;20033;-50
2021/01/25 11:02:31;;;;;;;5.55;2.72;;;7.20;78.80;;;;;;5022088;28;20400;-50
2021/01/25 11:04:57;;;;;;;3.90;2.65;;;7.20;78.90;;;;;;5025646;28;20109;-50
2021/01/25 11:07:23;;;;;;;5.10;3.15;;;7.20;78.90;;;;;;5028438;28;20032;-50
2021/01/25 11:09:48;;;;;;;6.78;2.90;;;7.20;78.80;;;;;;5022976;28;20021;-50
2021/01/25 11:12:14;;;;;;;6.03;3.25;;;7.20;78.90;;;;;;5023241;28;20026;-50
2021/01/25 11:14:39;;;;;;;8.68;2.97;;;7.20;78.80;;;;;;5023674;28;20037;-50
2021/01/25 11:17:05;;;;;;;5.15;3.08;;;7.20;78.80;;;;;;5014343;28;20032;-50
2021/01/25 11:19:31;;;;;;;3.65;3.13;;;7.20;78.80;;;;;;5013315;28;20018;-49
2021/01/25 11:21:56;;;;;;;5.97;3.33;;;7.20;78.90;;;;;;5017636;28;20049;-50
2021/01/25 11:24:22;;;;;;;5.72;3.40;;;7.20;78.80;;;;;;5021785;28;20040;-50
2021/01/25 11:26:47;;;;;;;7.88;3.40;;;7.20;78.80;;;;;;5022693;28;20029;-50
2021/01/25 11:29:15;;;;;;;6.47;3.35;;;7.20;78.80;;;;;;5022809;28;20025;-49
2021/01/25 11:31:41;;;;;;;4.70;2.70;;;7.20;78.90;;;;;;5019217;28;20052;-50
2021/01/25 11:34:07;;;;;;;5.93;3.88;;;7.20;78.80;;;;;;5029263;28;20068;-50
2021/01/25 11:36:32;;;;;;;7.88;4.22;;;7.30;79.00;;;;;;5029661;28;20053;-50
2021/01/25 11:38:58;;;;;;;7.00;3.58;;;7.20;78.80;;;;;;5013852;28;20037;-50
2021/01/25 11:41:24;;;;;;;8.55;4.10;;;7.20;78.80;;;;;;5015126;28;20041;-50
2021/01/25 11:43:49;;;;;;;7.18;4.07;;;7.30;79.00;;;;;;5033373;28;20336;-50
2021/01/25 11:46:15;;;;;;;7.50;4.00;;;7.30;78.90;;;;;;5032302;28;20021;-50
2021/01/25 11:48:41;;;;;;;8.05;4.15;;;7.30;78.90;;;;;;5015941;28;20045;-49
2021/01/25 11:51:06;;;;;;;5.80;3.75;;;7.30;79.00;;;;;;5013312;28;20455;-50
2021/01/25 11:53:32;;;;;;;5.57;3.75;;;7.30;79.10;;;;;;5013107;28;20084;-49
2021/01/25 11:55:59;;;;;;;6.68;2.95;;;7.30;79.10;;;;;;5030898;28;20486;-50
2021/01/25 11:58:25;;;;;;;4.53;2.78;;;7.30;79.10;;;;;;5022075;28;20045;-50
2021/01/25 12:00:50;;;;;;;5.38;3.10;;;7.30;79.20;;;;;;5012683;28;20030;-50
2021/01/25 12:03:16;;;;;;;5.57;3.00;;;7.30;79.20;;;;;;5012698;28;20037;-50
2021/01/25 12:05:42;;;;;;;5.07;3.20;;;7.30;79.30;;;;;;5013082;28;20101;-50
2021/01/25 12:08:07;;;;;;;7.50;2.85;;;7.30;79.30;;;;;;5011361;28;20022;-50
2021/01/25 12:10:34;;;;;;;10.43;3.10;;;7.30;79.40;;;;;;5025842;28;20017;-50
2021/01/25 12:13:00;;;;;;;3.85;2.75;;;7.30;79.40;;;;;;5033381;28;20041;-50
2021/01/25 12:15:25;;;;;;;5.68;2.10;;;7.30;79.40;;;;;;5020027;28;20030;-50
2021/01/25 12:17:51;;;;;;;3.65;2.40;;;7.30;79.40;;;;;;5028201;28;20033;-50
2021/01/25 12:20:17;;;;;;;5.65;2.63;;;7.30;79.40;;;;;;5036088;28;20071;-50
2021/01/25 12:22:43;;;;;;;4.28;2.28;;;7.30;79.40;;;;;;5021746;28;20133;-50
2021/01/25 12:25:09;;;;;;;7.18;1.25;;;7.30;79.40;;;;;;5027167;28;20025;-50
2021/01/25 12:27:35;;;;;;;0.90;0.80;;;7.30;79.40;;;;;;5016303;28;20030;-50
2021/01/25 12:30:01;;;;;;;0.55;0.55;;;7.30;79.40;;;;;;5015892;28;20032;-50
2021/01/25 12:32:27;;;;;;;0.90;0.88;;;7.30;79.40;;;;;;5016023;28;20109;-49
2021/01/25 12:34:53;;;;;;;1.00;0.65;;;7.30;79.50;;;;;;5016897;28;20438;-50
2021/01/25 12:37:18;;;;;;;0.73;0.73;;;7.30;79.40;;;;;;5015996;28;20029;-50
2021/01/25 12:39:44;;;;;;;1.55;0.85;;;7.30;79.40;;;;;;5021873;28;20148;-50
2021/01/25 12:42:10;;;;;;;0.60;0.60;;;7.40;79.40;;;;;;5035716;28;20136;-50
2021/01/25 12:44:36;;;;;;;1.73;0.65;;;7.30;79.40;;;;;;5035877;28;20038;-50
2021/01/25 12:47:03;;;;;;;0.57;0.57;;;7.40;79.40;;;;;;5022391;28;20337;-50
2021/01/25 12:49:29;;;;;;;0.70;0.70;;;7.40;79.50;;;;;;5021745;28;20394;-50
2021/01/25 12:51:54;;;;;;;1.83;0.98;;;7.40;79.50;;;;;;5035405;28;20451;-50
2021/01/25 12:54:21;;;;;;;1.50;1.05;;;7.40;79.50;;;;;;5035298;28;20029;-50
2021/01/25 12:56:48;;;;;;;1.23;0.90;;;7.40;79.50;;;;;;5033573;28;20018;-50
2021/01/25 12:59:15;;;;;;;1.15;0.82;;;7.40;79.50;;;;;;5024396;28;20060;-50